Time;durP1;ratioP1;P1;durP2;ratioP2;P2;SDS_P1;SDS_P2;PMS_P1;PMS_P2;Temp;Humidity;BMP_temperature;BMP_pressure;BME280_temperature;BME280_humidity;BME280_pressure;Samples;Min_cycle;Max_cycle;Signal;HPM_P1;HPM_P2
2021/04/06 00:00:47;;;;;;;6.30;3.35;;;6.10;59.70;;;;;;1483049;40;20591;-61
2021/04/06 00:02:13;;;;;;;8.25;2.70;;;6.20;59.80;;;;;;1489238;39;20461;-60
2021/04/06 00:03:35;;;;;;;4.10;2.50;;;6.20;59.90;;;;;;1485353;39;20031;-60
2021/04/06 00:05:00;;;;;;;5.65;2.60;;;6.20;59.60;;;;;;1485908;39;20028;-60
2021/04/06 00:06:22;;;;;;;7.28;3.00;;;6.20;59.70;;;;;;1479960;40;20051;-60
2021/04/06 00:07:45;;;;;;;5.65;2.63;;;6.20;59.60;;;;;;1485704;39;20024;-60
2021/04/06 00:09:09;;;;;;;5.47;2.60;;;6.20;59.60;;;;;;1488648;39;20032;-60
2021/04/06 00:10:39;;;;;;;3.38;2.33;;;6.20;59.50;;;;;;1487907;39;20028;-59
2021/04/06 00:12:05;;;;;;;5.20;2.85;;;6.30;59.90;;;;;;1488316;39;20048;-59
2021/04/06 00:13:29;;;;;;;10.05;2.80;;;6.30;59.70;;;;;;1484437;39;20368;-59
2021/04/06 00:14:52;;;;;;;6.20;2.78;;;6.30;59.60;;;;;;1483088;40;20033;-60
2021/04/06 00:16:13;;;;;;;3.05;2.30;;;6.30;59.70;;;;;;1482797;40;20118;-60
2021/04/06 00:17:35;;;;;;;6.28;2.60;;;6.30;59.50;;;;;;1485313;39;20042;-60
2021/04/06 00:18:58;;;;;;;4.80;2.40;;;6.30;59.60;;;;;;1486831;39;20029;-60
2021/04/06 00:20:21;;;;;;;4.88;2.58;;;6.30;59.60;;;;;;1483700;39;20236;-60
2021/04/06 00:21:42;;;;;;;6.38;2.83;;;6.30;59.50;;;;;;1486275;39;20072;-59
2021/04/06 00:23:06;;;;;;;8.27;2.67;;;6.30;59.50;;;;;;1487766;39;20065;-61
2021/04/06 00:24:30;;;;;;;8.43;2.50;;;6.30;59.40;;;;;;1484188;39;20036;-60
2021/04/06 00:25:52;;;;;;;5.15;2.45;;;6.30;59.40;;;;;;1487246;39;20269;-60
2021/04/06 00:27:17;;;;;;;8.15;2.28;;;6.30;59.20;;;;;;1480392;40;20029;-60
2021/04/06 00:28:42;;;;;;;5.07;2.05;;;6.30;59.20;;;;;;1487011;39;20040;-60
2021/04/06 00:30:09;;;;;;;6.05;2.42;;;6.30;59.50;;;;;;1488156;39;20036;-59
2021/04/06 00:31:31;;;;;;;3.63;2.03;;;6.30;59.50;;;;;;1484405;39;20029;-58
2021/04/06 00:33:09;;;;;;;6.72;2.50;;;6.40;59.50;;;;;;1486782;39;20028;-60
2021/04/06 00:34:32;;;;;;;4.43;2.33;;;6.30;59.50;;;;;;1484368;39;20040;-60
2021/04/06 00:35:56;;;;;;;6.10;2.40;;;6.30;59.20;;;;;;1486308;39;20028;-59
2021/04/06 00:37:18;;;;;;;4.07;1.92;;;6.30;59.20;;;;;;1486848;39;20043;-60
2021/04/06 00:38:41;;;;;;;3.65;1.80;;;6.30;59.10;;;;;;1486059;39;20104;-59
2021/04/06 00:40:05;;;;;;;6.60;2.45;;;6.40;59.60;;;;;;1483441;40;20103;-59
2021/04/06 00:41:26;;;;;;;10.57;2.80;;;6.30;59.10;;;;;;1483104;39;20040;-59
2021/04/06 00:42:47;;;;;;;5.82;2.30;;;6.30;59.20;;;;;;1485759;39;20024;-60
2021/04/06 00:44:16;;;;;;;5.90;2.10;;;6.30;59.10;;;;;;1487818;39;20355;-60
2021/04/06 00:45:40;;;;;;;4.28;1.92;;;6.30;59.40;;;;;;1487239;39;20039;-60
2021/04/06 00:47:02;;;;;;;5.32;2.15;;;6.30;59.10;;;;;;1485438;39;20052;-59
2021/04/06 00:48:23;;;;;;;4.22;1.90;;;6.30;59.00;;;;;;1484706;39;20028;-59
2021/04/06 00:49:45;;;;;;;8.18;2.38;;;6.40;59.20;;;;;;1487785;39;20027;-60
2021/04/06 00:51:12;;;;;;;6.30;2.13;;;6.30;58.90;;;;;;1486975;39;20340;-61
2021/04/06 00:52:33;;;;;;;6.10;2.00;;;6.30;59.10;;;;;;1485615;39;20053;-60
2021/04/06 00:54:04;;;;;;;5.45;2.50;;;6.30;58.90;;;;;;1487579;39;20061;-59
2021/04/06 00:55:39;;;;;;;6.05;1.88;;;6.30;58.90;;;;;;1485872;39;20048;-60
2021/04/06 00:57:00;;;;;;;6.53;2.22;;;6.30;59.10;;;;;;1487316;39;20028;-60
2021/04/06 00:58:25;;;;;;;5.70;2.30;;;6.30;59.00;;;;;;1485727;39;20040;-59
2021/04/06 01:00:14;;;;;;;6.45;2.03;;;6.30;59.00;;;;;;1480825;40;20036;-60
2021/04/06 01:01:46;;;;;;;4.63;2.20;;;6.30;59.20;;;;;;1489172;39;20016;-61
2021/04/06 01:03:12;;;;;;;6.10;2.30;;;6.30;59.00;;;;;;1487345;39;20032;-60
2021/04/06 01:04:38;;;;;;;6.13;2.08;;;6.30;58.90;;;;;;1487777;39;20086;-60
2021/04/06 01:05:58;;;;;;;5.63;2.00;;;6.30;59.00;;;;;;1485509;39;20048;-59
2021/04/06 01:07:22;;;;;;;4.85;1.83;;;6.30;58.90;;;;;;1484360;39;20228;-59
2021/04/06 01:08:43;;;;;;;5.78;2.05;;;6.30;59.10;;;;;;1485819;39;20326;-60
2021/04/06 01:10:07;;;;;;;4.78;1.98;;;6.30;59.00;;;;;;1486777;39;20036;-60
2021/04/06 01:11:28;;;;;;;7.97;2.35;;;6.30;59.30;;;;;;1484888;39;20236;-60
2021/04/06 01:12:49;;;;;;;5.70;2.30;;;6.30;59.20;;;;;;1486885;39;20036;-60
2021/04/06 01:14:15;;;;;;;5.57;2.17;;;6.30;59.10;;;;;;1484712;40;20039;-61
2021/04/06 01:15:36;;;;;;;5.57;2.35;;;6.30;59.30;;;;;;1485115;39;20042;-60
2021/04/06 01:16:58;;;;;;;6.18;2.55;;;6.40;59.20;;;;;;1487713;39;20040;-60
2021/04/06 01:18:21;;;;;;;6.97;2.40;;;6.30;59.20;;;;;;1483901;40;20350;-59
2021/04/06 01:19:42;;;;;;;7.10;1.95;;;6.40;59.30;;;;;;1485690;39;20499;-59
2021/04/06 01:21:12;;;;;;;6.88;2.80;;;6.40;59.30;;;;;;1486113;39;20388;-60
2021/04/06 01:22:35;;;;;;;7.10;2.35;;;6.40;59.50;;;;;;1487706;39;20017;-59
2021/04/06 01:23:56;;;;;;;7.75;2.65;;;6.40;59.30;;;;;;1486112;39;20035;-59
2021/04/06 01:25:25;;;;;;;9.68;2.65;;;6.40;59.10;;;;;;1486683;39;20087;-59
2021/04/06 01:26:48;;;;;;;6.50;2.30;;;6.40;59.30;;;;;;1485888;39;20039;-60
2021/04/06 01:28:10;;;;;;;4.00;2.33;;;6.40;59.10;;;;;;1486696;39;20032;-60
2021/04/06 01:29:31;;;;;;;8.90;2.25;;;6.40;59.00;;;;;;1484910;39;20072;-60
2021/04/06 01:30:52;;;;;;;5.80;2.67;;;6.40;59.00;;;;;;1487734;39;20036;-59
2021/04/06 01:32:13;;;;;;;8.18;2.20;;;6.40;58.90;;;;;;1485062;40;20044;-59
2021/04/06 01:33:35;;;;;;;6.80;2.55;;;6.40;58.90;;;;;;1483523;39;20072;-60
2021/04/06 01:34:56;;;;;;;7.22;2.10;;;6.40;58.90;;;;;;1488947;39;20067;-59
2021/04/06 01:36:25;;;;;;;6.85;2.20;;;6.40;58.90;;;;;;1480547;40;20040;-61
2021/04/06 01:37:46;;;;;;;5.93;1.90;;;6.30;58.80;;;;;;1479917;40;20024;-60
2021/04/06 01:39:11;;;;;;;5.78;2.15;;;6.40;58.90;;;;;;1485191;40;20042;-61
2021/04/06 01:40:32;;;;;;;6.68;2.70;;;6.30;58.90;;;;;;1484690;39;20360;-60
2021/04/06 01:41:58;;;;;;;7.28;2.47;;;6.30;59.30;;;;;;1485295;39;20502;-60
2021/04/06 01:43:22;;;;;;;11.27;3.72;;;6.30;58.90;;;;;;1487644;39;20040;-59
2021/04/06 01:44:47;;;;;;;7.82;2.47;;;6.30;58.90;;;;;;1485604;39;20115;-60
2021/04/06 01:46:16;;;;;;;6.80;2.55;;;6.30;58.80;;;;;;1487609;39;20031;-60
2021/04/06 01:47:38;;;;;;;5.43;2.33;;;6.30;58.90;;;;;;1488272;39;20138;-60
2021/04/06 01:49:01;;;;;;;4.35;2.13;;;6.30;59.40;;;;;;1486527;39;20032;-59
2021/04/06 01:50:22;;;;;;;6.32;2.38;;;6.30;59.00;;;;;;1483705;39;20368;-60
2021/04/06 01:51:45;;;;;;;9.85;2.78;;;6.30;59.00;;;;;;1487320;39;20024;-59
2021/04/06 01:53:06;;;;;;;5.43;1.98;;;6.40;58.90;;;;;;1484908;39;20044;-60
2021/04/06 01:54:27;;;;;;;6.93;2.25;;;6.30;59.00;;;;;;1484954;39;20074;-60
2021/04/06 01:55:57;;;;;;;8.05;2.20;;;6.30;59.20;;;;;;1486005;39;20028;-61
2021/04/06 01:57:25;;;;;;;6.05;2.10;;;6.40;59.20;;;;;;1485718;39;20284;-60
2021/04/06 01:58:47;;;;;;;10.00;2.72;;;6.40;59.20;;;;;;1482820;40;20229;-60
2021/04/06 02:00:26;;;;;;;8.70;2.70;;;6.40;59.00;;;;;;1483400;40;20052;-59
2021/04/06 02:01:51;;;;;;;2.95;1.90;;;6.40;59.10;;;;;;1486426;39;20121;-59
2021/04/06 02:03:13;;;;;;;6.82;2.10;;;6.40;58.80;;;;;;1490357;39;20043;-59
2021/04/06 02:04:35;;;;;;;7.03;1.98;;;6.40;58.80;;;;;;1487713;39;20166;-60
2021/04/06 02:05:57;;;;;;;8.40;2.00;;;6.40;58.80;;;;;;1486553;39;20739;-60
2021/04/06 02:07:24;;;;;;;5.63;2.47;;;6.30;58.80;;;;;;1479506;40;20029;-59
2021/04/06 02:08:49;;;;;;;6.70;1.83;;;6.40;58.90;;;;;;1482182;39;20033;-59
2021/04/06 02:10:10;;;;;;;7.75;2.58;;;6.30;58.90;;;;;;1486997;39;20036;-60
2021/04/06 02:11:34;;;;;;;11.38;2.78;;;6.40;58.90;;;;;;1487163;39;20036;-60
2021/04/06 02:12:55;;;;;;;5.57;2.03;;;6.40;58.80;;;;;;1486879;39;20121;-60
2021/04/06 02:14:23;;;;;;;11.32;2.20;;;6.40;58.70;;;;;;1483731;39;20037;-60
2021/04/06 02:15:56;;;;;;;6.00;2.40;;;6.40;58.70;;;;;;1485210;39;20035;-59
2021/04/06 02:17:17;;;;;;;8.82;2.30;;;6.40;58.90;;;;;;1479189;40;20037;-60
2021/04/06 02:18:38;;;;;;;7.20;2.53;;;6.40;58.70;;;;;;1483772;39;20036;-60
2021/04/06 02:19:59;;;;;;;6.65;2.25;;;6.30;58.70;;;;;;1487470;39;20040;-60
2021/04/06 02:21:26;;;;;;;7.13;3.03;;;6.30;58.80;;;;;;1486781;39;20039;-60
2021/04/06 02:23:01;;;;;;;7.18;2.55;;;6.30;58.80;;;;;;1486266;39;20126;-59
2021/04/06 02:24:40;;;;;;;6.97;2.30;;;6.30;59.20;;;;;;1485086;39;20036;-59
2021/04/06 02:26:01;;;;;;;5.70;2.58;;;6.30;59.10;;;;;;1486648;39;20124;-60
2021/04/06 02:27:34;;;;;;;7.28;2.72;;;6.30;58.70;;;;;;1478817;40;20048;-60
2021/04/06 02:28:55;;;;;;;9.48;2.30;;;6.40;59.20;;;;;;1485797;39;20038;-60
2021/04/06 02:30:16;;;;;;;4.65;2.38;;;6.40;58.90;;;;;;1483285;39;20020;-61
2021/04/06 02:31:40;;;;;;;4.45;2.22;;;6.40;58.90;;;;;;1483216;40;20086;-59
2021/04/06 02:33:02;;;;;;;6.00;2.38;;;6.40;59.30;;;;;;1485865;39;20048;-59
2021/04/06 02:34:34;;;;;;;7.75;2.50;;;6.30;59.20;;;;;;1483855;39;20037;-60
2021/04/06 02:36:04;;;;;;;3.85;1.92;;;6.30;59.30;;;;;;1487003;39;20027;-60
2021/04/06 02:37:30;;;;;;;6.50;2.65;;;6.30;59.10;;;;;;1483575;39;20025;-60
2021/04/06 02:38:51;;;;;;;7.25;2.78;;;6.30;59.30;;;;;;1487470;39;20031;-60
2021/04/06 02:40:15;;;;;;;6.60;2.28;;;6.30;59.10;;;;;;1481859;40;20044;-60
2021/04/06 02:41:35;;;;;;;7.00;2.70;;;6.30;59.10;;;;;;1486190;39;20039;-59
2021/04/06 02:42:57;;;;;;;5.25;1.92;;;6.30;59.10;;;;;;1486766;39;20036;-60
2021/04/06 02:44:18;;;;;;;6.32;2.22;;;6.30;59.10;;;;;;1483846;39;20029;-60
2021/04/06 02:45:39;;;;;;;6.50;2.20;;;6.30;59.20;;;;;;1484308;39;20588;-60
2021/04/06 02:47:01;;;;;;;7.70;2.80;;;6.30;59.50;;;;;;1486859;39;20323;-60
2021/04/06 02:48:22;;;;;;;6.95;2.50;;;6.30;59.50;;;;;;1483829;39;20037;-60
2021/04/06 02:49:44;;;;;;;6.50;2.13;;;6.30;59.50;;;;;;1487463;39;20328;-60
2021/04/06 02:51:08;;;;;;;4.28;1.95;;;6.30;59.60;;;;;;1486452;39;20113;-60
2021/04/06 02:52:29;;;;;;;5.20;2.30;;;6.30;59.60;;;;;;1487492;39;20073;-60
2021/04/06 02:53:52;;;;;;;6.85;2.10;;;6.30;59.60;;;;;;1487444;39;20178;-60
2021/04/06 02:55:14;;;;;;;12.20;3.25;;;6.30;59.80;;;;;;1490382;39;20035;-60
2021/04/06 02:56:37;;;;;;;8.63;2.30;;;6.30;59.80;;;;;;1485510;39;20094;-60
2021/04/06 02:57:58;;;;;;;7.30;3.03;;;6.30;59.80;;;;;;1484994;39;20078;-59
2021/04/06 02:59:20;;;;;;;7.43;2.80;;;6.30;59.70;;;;;;1480747;40;20029;-60
2021/04/06 03:00:42;;;;;;;5.85;2.75;;;6.30;59.50;;;;;;1479460;40;20064;-60
2021/04/06 03:02:03;;;;;;;5.38;2.60;;;6.30;59.60;;;;;;1485968;40;20087;-60
2021/04/06 03:03:25;;;;;;;7.57;2.50;;;6.40;59.70;;;;;;1485818;39;20057;-60
2021/04/06 03:04:49;;;;;;;7.82;2.58;;;6.30;59.60;;;;;;1485357;39;20452;-59
2021/04/06 03:06:12;;;;;;;6.28;2.38;;;6.30;59.70;;;;;;1486697;40;20028;-60
2021/04/06 03:07:45;;;;;;;7.38;3.00;;;6.30;59.80;;;;;;1484295;39;20029;-60
2021/04/06 03:09:10;;;;;;;6.82;2.88;;;6.30;60.00;;;;;;1488665;39;20042;-60
2021/04/06 03:10:33;;;;;;;9.00;2.80;;;6.30;59.70;;;;;;1485081;39;20358;-63
2021/04/06 03:11:55;;;;;;;6.45;3.28;;;6.30;59.80;;;;;;1488075;39;20036;-60
2021/04/06 03:13:16;;;;;;;6.60;2.60;;;6.30;59.90;;;;;;1478639;40;20033;-60
2021/04/06 03:14:37;;;;;;;9.05;3.25;;;6.40;59.90;;;;;;1486127;39;20250;-59
2021/04/06 03:15:58;;;;;;;6.03;3.08;;;6.30;59.80;;;;;;1487373;39;20153;-59
2021/04/06 03:17:19;;;;;;;5.80;2.78;;;6.30;59.80;;;;;;1484507;39;20025;-60
2021/04/06 03:18:41;;;;;;;9.52;3.65;;;6.30;59.70;;;;;;1484942;39;20040;-60
2021/04/06 03:20:02;;;;;;;8.57;3.28;;;6.30;59.80;;;;;;1487925;39;20301;-60
2021/04/06 03:21:24;;;;;;;7.85;3.10;;;6.30;59.80;;;;;;1486991;39;20036;-60
2021/04/06 03:22:46;;;;;;;7.55;3.30;;;6.30;59.80;;;;;;1487264;39;20028;-60
2021/04/06 03:24:08;;;;;;;8.80;3.15;;;6.30;59.80;;;;;;1487346;39;20052;-59
2021/04/06 03:25:32;;;;;;;9.48;3.08;;;6.30;59.80;;;;;;1486600;39;20049;-60
2021/04/06 03:27:01;;;;;;;8.27;3.55;;;6.20;59.60;;;;;;1486586;39;20021;-59
2021/04/06 03:28:31;;;;;;;9.32;3.60;;;6.20;59.70;;;;;;1488078;39;20055;-59
2021/04/06 03:29:51;;;;;;;8.70;3.55;;;6.20;59.70;;;;;;1487947;39;20141;-59
2021/04/06 03:31:16;;;;;;;7.68;3.83;;;6.20;59.60;;;;;;1487131;40;20276;-60
2021/04/06 03:32:38;;;;;;;7.60;3.20;;;6.20;59.60;;;;;;1484883;39;20313;-59
2021/04/06 03:34:00;;;;;;;8.07;3.78;;;6.20;59.70;;;;;;1487948;39;20071;-59
2021/04/06 03:35:22;;;;;;;10.38;3.75;;;6.20;59.60;;;;;;1482920;40;20024;-59
2021/04/06 03:36:43;;;;;;;6.40;3.70;;;6.20;59.70;;;;;;1486278;39;20036;-60
2021/04/06 03:38:07;;;;;;;7.85;3.80;;;6.20;59.70;;;;;;1487464;39;20043;-59
2021/04/06 03:39:28;;;;;;;8.80;4.07;;;6.20;59.60;;;;;;1484457;39;20035;-60
2021/04/06 03:40:51;;;;;;;8.70;3.78;;;6.10;59.80;;;;;;1486328;39;20128;-59
2021/04/06 03:42:26;;;;;;;7.93;3.33;;;6.10;59.80;;;;;;1490447;39;20031;-59
2021/04/06 03:43:47;;;;;;;9.93;3.67;;;6.10;59.80;;;;;;1489552;39;20113;-60
2021/04/06 03:45:10;;;;;;;7.43;3.45;;;6.10;59.60;;;;;;1483091;40;20130;-60
2021/04/06 03:46:31;;;;;;;5.20;3.53;;;6.10;59.60;;;;;;1486333;39;20046;-59
2021/04/06 03:47:59;;;;;;;5.80;3.42;;;6.10;59.60;;;;;;1487822;39;20071;-60
2021/04/06 03:49:23;;;;;;;9.25;3.53;;;6.10;59.90;;;;;;1484027;39;20032;-59
2021/04/06 03:50:43;;;;;;;6.97;3.13;;;6.10;59.80;;;;;;1485258;39;20051;-60
2021/04/06 03:52:08;;;;;;;8.27;3.40;;;6.00;59.60;;;;;;1487434;39;20109;-60
2021/04/06 03:53:42;;;;;;;9.35;3.40;;;6.00;59.80;;;;;;1486317;39;20040;-59
2021/04/06 03:55:09;;;;;;;8.32;3.60;;;6.00;60.00;;;;;;1486568;39;20238;-59
2021/04/06 03:56:32;;;;;;;6.15;3.13;;;6.00;59.80;;;;;;1488033;39;20040;-59
2021/04/06 03:58:02;;;;;;;5.30;3.05;;;6.00;59.60;;;;;;1487603;39;20300;-60
2021/04/06 03:59:27;;;;;;;9.52;3.05;;;6.00;59.90;;;;;;1487928;39;20032;-60
2021/04/06 04:00:48;;;;;;;7.60;3.28;;;6.00;59.70;;;;;;1486204;39;20020;-59
2021/04/06 04:02:09;;;;;;;8.27;3.28;;;6.00;59.70;;;;;;1484575;39;20339;-59
2021/04/06 04:03:30;;;;;;;6.72;3.40;;;6.00;59.60;;;;;;1487482;39;20021;-60
2021/04/06 04:04:52;;;;;;;8.25;3.10;;;5.90;59.60;;;;;;1486317;39;20028;-59
2021/04/06 04:06:27;;;;;;;7.35;3.35;;;6.00;59.70;;;;;;1486985;39;20020;-60
2021/04/06 04:07:48;;;;;;;7.47;2.85;;;5.90;59.90;;;;;;1485360;39;20354;-59
2021/04/06 04:09:09;;;;;;;6.38;2.80;;;5.90;59.60;;;;;;1486275;39;20044;-59
2021/04/06 04:10:30;;;;;;;8.98;2.90;;;5.90;59.60;;;;;;1484187;39;20032;-60
2021/04/06 04:11:50;;;;;;;10.25;3.60;;;5.90;60.00;;;;;;1486949;39;20027;-59
2021/04/06 04:13:11;;;;;;;13.52;3.38;;;5.90;59.70;;;;;;1487675;40;20028;-59
2021/04/06 04:14:32;;;;;;;4.95;3.13;;;5.90;59.60;;;;;;1484134;40;20088;-60
2021/04/06 04:15:53;;;;;;;9.68;2.92;;;5.90;59.60;;;;;;1483919;39;20070;-59
2021/04/06 04:17:14;;;;;;;8.05;3.00;;;5.80;59.60;;;;;;1486927;39;20046;-60
2021/04/06 04:18:35;;;;;;;7.38;2.83;;;5.80;59.60;;;;;;1484613;39;20097;-59
2021/04/06 04:19:56;;;;;;;8.07;3.17;;;5.80;59.70;;;;;;1486395;39;20064;-60
2021/04/06 04:21:17;;;;;;;6.68;3.08;;;5.80;59.70;;;;;;1483437;39;20049;-59
2021/04/06 04:22:38;;;;;;;9.45;2.65;;;5.80;59.60;;;;;;1484194;39;20031;-59
2021/04/06 04:23:59;;;;;;;6.18;3.17;;;5.80;59.60;;;;;;1486624;39;20042;-60
2021/04/06 04:25:21;;;;;;;5.60;2.75;;;5.80;59.60;;;;;;1483948;39;20036;-60
2021/04/06 04:26:42;;;;;;;4.68;2.50;;;5.80;59.60;;;;;;1485043;39;20048;-59
2021/04/06 04:28:03;;;;;;;5.75;2.97;;;5.80;59.60;;;;;;1486567;39;20048;-59
2021/04/06 04:29:24;;;;;;;6.53;2.97;;;5.80;59.60;;;;;;1484809;39;20017;-59
2021/04/06 04:30:49;;;;;;;10.10;3.13;;;5.70;59.60;;;;;;1484917;39;20273;-59
2021/04/06 04:32:13;;;;;;;8.13;3.30;;;5.70;59.70;;;;;;1486801;40;20272;-59
2021/04/06 04:33:34;;;;;;;8.73;2.67;;;5.70;59.50;;;;;;1485700;39;20043;-59
2021/04/06 04:34:55;;;;;;;12.07;2.97;;;5.70;59.60;;;;;;1487773;39;20059;-59
2021/04/06 04:36:16;;;;;;;9.50;3.00;;;5.70;59.60;;;;;;1487420;39;20016;-59
2021/04/06 04:37:37;;;;;;;9.40;2.63;;;5.70;59.60;;;;;;1488036;39;20071;-59
2021/04/06 04:38:58;;;;;;;12.82;3.33;;;5.70;59.60;;;;;;1488027;39;20028;-60
2021/04/06 04:40:19;;;;;;;7.45;2.47;;;5.70;59.60;;;;;;1484092;39;20035;-60
2021/04/06 04:41:40;;;;;;;8.07;3.00;;;5.70;59.70;;;;;;1485386;39;20385;-60
2021/04/06 04:43:02;;;;;;;9.18;2.50;;;5.70;59.70;;;;;;1487113;39;20415;-60
2021/04/06 04:44:23;;;;;;;8.38;2.90;;;5.70;59.70;;;;;;1486372;39;20031;-59
2021/04/06 04:45:43;;;;;;;8.93;2.75;;;5.70;59.60;;;;;;1486830;39;20024;-59
2021/04/06 04:47:04;;;;;;;9.15;3.20;;;5.70;59.70;;;;;;1487955;39;20356;-60
2021/04/06 04:48:25;;;;;;;8.80;3.00;;;5.70;59.70;;;;;;1484655;39;20040;-60
2021/04/06 04:49:46;;;;;;;6.97;2.45;;;5.70;59.80;;;;;;1487063;39;20241;-60
2021/04/06 04:51:07;;;;;;;6.20;3.20;;;5.70;59.90;;;;;;1487564;39;20317;-59
2021/04/06 04:52:28;;;;;;;5.43;3.22;;;5.70;59.90;;;;;;1490520;39;20085;-61
2021/04/06 04:53:50;;;;;;;5.50;2.45;;;5.70;59.80;;;;;;1489287;39;20051;-59
2021/04/06 04:55:16;;;;;;;6.57;2.83;;;5.70;59.80;;;;;;1485440;40;20074;-59
2021/04/06 04:56:37;;;;;;;11.20;2.90;;;5.70;59.80;;;;;;1484342;39;20044;-58
2021/04/06 04:57:58;;;;;;;10.75;3.15;;;5.70;59.70;;;;;;1487330;39;20034;-59
2021/04/06 04:59:19;;;;;;;7.70;2.40;;;5.70;59.60;;;;;;1486153;39;20051;-59
2021/04/06 05:00:40;;;;;;;5.60;2.63;;;5.70;59.60;;;;;;1480670;40;20037;-59
2021/04/06 05:02:02;;;;;;;10.73;3.00;;;5.60;59.60;;;;;;1484778;40;20032;-59
2021/04/06 05:03:23;;;;;;;7.40;2.63;;;5.70;59.50;;;;;;1481878;40;20481;-59
2021/04/06 05:04:44;;;;;;;9.82;2.28;;;5.70;59.50;;;;;;1487605;39;20028;-59
2021/04/06 05:06:05;;;;;;;5.78;2.38;;;5.60;59.50;;;;;;1485873;39;20122;-59
2021/04/06 05:07:26;;;;;;;8.13;2.90;;;5.70;59.60;;;;;;1484239;39;20031;-59
2021/04/06 05:08:47;;;;;;;7.13;2.53;;;5.70;59.60;;;;;;1485334;39;20413;-59
2021/04/06 05:10:10;;;;;;;8.73;2.63;;;5.70;59.70;;;;;;1485714;39;20307;-61
2021/04/06 05:11:31;;;;;;;5.68;2.30;;;5.70;59.60;;;;;;1487004;39;20021;-61
2021/04/06 05:12:52;;;;;;;6.57;2.30;;;5.70;59.50;;;;;;1487301;39;20141;-59
2021/04/06 05:14:13;;;;;;;7.25;2.60;;;5.60;59.40;;;;;;1487294;40;20028;-61
2021/04/06 05:15:34;;;;;;;7.50;2.38;;;5.70;59.50;;;;;;1484445;39;20044;-59
2021/04/06 05:16:55;;;;;;;10.07;3.10;;;5.70;59.40;;;;;;1487217;39;20036;-58
2021/04/06 05:18:15;;;;;;;8.02;2.95;;;5.60;59.30;;;;;;1483544;39;20287;-61
2021/04/06 05:19:36;;;;;;;8.68;2.67;;;5.70;59.40;;;;;;1480713;40;20012;-61
2021/04/06 05:20:57;;;;;;;9.93;2.72;;;5.70;59.50;;;;;;1484877;40;20288;-60
2021/04/06 05:22:18;;;;;;;6.45;2.30;;;5.60;59.40;;;;;;1483724;39;20096;-60
2021/04/06 05:23:39;;;;;;;5.05;2.17;;;5.60;59.40;;;;;;1488409;39;20039;-60
2021/04/06 05:25:00;;;;;;;6.32;2.10;;;5.60;59.40;;;;;;1488008;39;20039;-60
2021/04/06 05:26:21;;;;;;;8.90;2.40;;;5.60;59.40;;;;;;1486005;39;20029;-61
2021/04/06 05:27:42;;;;;;;8.00;2.22;;;5.60;59.40;;;;;;1487501;39;20048;-60
2021/04/06 05:29:03;;;;;;;4.35;2.00;;;5.70;59.50;;;;;;1487606;39;20102;-60
2021/04/06 05:30:24;;;;;;;5.22;2.08;;;5.70;59.60;;;;;;1484340;39;20032;-61
2021/04/06 05:31:45;;;;;;;7.53;2.58;;;5.60;59.60;;;;;;1485809;39;20028;-61
2021/04/06 05:33:06;;;;;;;9.68;2.33;;;5.70;59.80;;;;;;1487043;39;20032;-60
2021/04/06 05:34:27;;;;;;;5.47;2.03;;;5.70;59.70;;;;;;1484664;39;20362;-61
2021/04/06 05:35:50;;;;;;;4.78;1.65;;;5.70;59.70;;;;;;1487198;39;20447;-60
2021/04/06 05:37:11;;;;;;;7.13;2.38;;;5.70;59.80;;;;;;1486461;39;20372;-60
2021/04/06 05:38:32;;;;;;;6.07;2.00;;;5.70;59.80;;;;;;1486877;39;20373;-60
2021/04/06 05:39:53;;;;;;;9.80;2.35;;;5.70;59.80;;;;;;1486381;39;20062;-61
2021/04/06 05:41:15;;;;;;;7.55;2.10;;;5.70;59.90;;;;;;1486518;40;20032;-60
2021/04/06 05:42:37;;;;;;;4.18;2.15;;;5.80;59.90;;;;;;1486230;39;20012;-61
2021/04/06 05:44:04;;;;;;;6.18;2.25;;;5.80;59.90;;;;;;1488142;39;20043;-60
2021/04/06 05:45:26;;;;;;;3.72;1.92;;;5.80;60.00;;;;;;1479988;40;20021;-60
2021/04/06 05:46:50;;;;;;;3.67;1.98;;;5.80;59.90;;;;;;1486111;39;20036;-60
2021/04/06 05:48:15;;;;;;;3.67;2.22;;;5.80;60.00;;;;;;1487255;39;20292;-61
2021/04/06 05:49:36;;;;;;;6.18;3.00;;;5.90;60.70;;;;;;1484114;39;20543;-59
2021/04/06 05:50:57;;;;;;;6.50;2.40;;;5.90;59.90;;;;;;1484785;39;20039;-59
2021/04/06 05:52:18;;;;;;;4.18;1.90;;;5.90;59.80;;;;;;1486983;39;20035;-60
2021/04/06 05:53:39;;;;;;;3.67;2.25;;;5.90;59.80;;;;;;1485061;39;20072;-58
2021/04/06 05:55:03;;;;;;;4.40;2.03;;;5.90;59.90;;;;;;1486847;39;20300;-58
2021/04/06 05:56:23;;;;;;;4.90;2.20;;;5.90;59.90;;;;;;1484410;39;20110;-58
2021/04/06 05:57:44;;;;;;;7.10;2.63;;;5.90;60.00;;;;;;1484802;39;20205;-60
2021/04/06 05:59:06;;;;;;;7.65;2.60;;;6.00;60.10;;;;;;1486951;39;20056;-59
2021/04/06 06:00:27;;;;;;;6.28;2.78;;;6.00;60.00;;;;;;1484510;39;20138;-61
2021/04/06 06:01:48;;;;;;;4.95;2.47;;;6.00;59.90;;;;;;1487894;39;20040;-59
2021/04/06 06:03:10;;;;;;;2.90;2.10;;;6.00;59.90;;;;;;1487210;39;20032;-58
2021/04/06 06:04:34;;;;;;;4.72;2.40;;;6.00;60.00;;;;;;1485678;39;20033;-59
2021/04/06 06:05:55;;;;;;;4.68;2.17;;;6.10;60.00;;;;;;1485906;39;20030;-59
2021/04/06 06:07:16;;;;;;;4.20;2.08;;;6.10;59.80;;;;;;1486005;39;20358;-59
2021/04/06 06:08:39;;;;;;;4.45;2.15;;;6.10;59.80;;;;;;1484879;39;20032;-59
2021/04/06 06:10:28;;;;;;;3.63;2.05;;;6.10;59.90;;;;;;1486719;39;20087;-59
2021/04/06 06:12:03;;;;;;;5.32;2.53;;;6.10;60.00;;;;;;1484946;39;20020;-58
2021/04/06 06:13:24;;;;;;;6.43;2.28;;;6.20;59.80;;;;;;1486998;39;20040;-60
2021/04/06 06:14:53;;;;;;;4.38;2.17;;;6.20;59.60;;;;;;1485651;39;20036;-61
2021/04/06 06:16:20;;;;;;;4.63;1.83;;;6.20;59.60;;;;;;1483275;40;20036;-60
2021/04/06 06:17:41;;;;;;;4.55;2.40;;;6.20;59.60;;;;;;1485031;39;20072;-60
2021/04/06 06:19:11;;;;;;;5.05;2.47;;;6.30;59.60;;;;;;1485676;39;20354;-60
2021/04/06 06:20:33;;;;;;;4.82;3.10;;;6.30;59.80;;;;;;1483350;39;20021;-60
2021/04/06 06:21:54;;;;;;;5.60;2.92;;;6.30;59.80;;;;;;1485954;39;20031;-60
2021/04/06 06:23:20;;;;;;;6.95;3.10;;;6.30;59.70;;;;;;1490035;39;20091;-58
2021/04/06 06:24:44;;;;;;;7.65;3.75;;;6.30;59.70;;;;;;1484496;39;20126;-61
2021/04/06 06:26:13;;;;;;;7.38;3.50;;;6.30;59.60;;;;;;1486528;39;20032;-58
2021/04/06 06:27:41;;;;;;;6.35;3.75;;;6.40;59.70;;;;;;1483914;39;20044;-61
2021/04/06 06:29:04;;;;;;;7.95;4.30;;;6.40;59.60;;;;;;1486691;39;20028;-60
2021/04/06 06:30:38;;;;;;;7.65;4.32;;;6.40;59.60;;;;;;1487819;39;20048;-61
2021/04/06 06:32:00;;;;;;;6.63;4.10;;;6.40;59.60;;;;;;1485343;39;20032;-60
2021/04/06 06:33:25;;;;;;;10.23;4.10;;;6.40;59.50;;;;;;1486988;39;20036;-60
2021/04/06 06:34:46;;;;;;;14.30;4.57;;;6.40;59.50;;;;;;1487609;39;20016;-61
2021/04/06 06:36:13;;;;;;;7.10;3.78;;;6.50;59.60;;;;;;1487096;39;20043;-60
2021/04/06 06:37:34;;;;;;;6.93;4.40;;;6.50;59.60;;;;;;1485994;39;20282;-60
2021/04/06 06:39:03;;;;;;;5.93;3.88;;;6.50;59.50;;;;;;1486990;39;20040;-61
2021/04/06 06:40:24;;;;;;;5.72;3.58;;;6.50;59.50;;;;;;1487930;39;20032;-60
2021/04/06 06:42:07;;;;;;;6.30;3.80;;;6.50;59.40;;;;;;1486890;39;20016;-60
2021/04/06 06:43:29;;;;;;;8.25;3.85;;;6.50;59.30;;;;;;1487815;39;20045;-60
2021/04/06 06:44:50;;;;;;;5.82;3.10;;;6.50;59.10;;;;;;1486189;39;20043;-60
2021/04/06 06:46:22;;;;;;;6.22;2.83;;;6.60;59.00;;;;;;1483887;39;20043;-61
2021/04/06 06:47:56;;;;;;;4.53;2.90;;;6.60;58.90;;;;;;1485894;39;20070;-60
2021/04/06 06:49:29;;;;;;;6.95;3.05;;;6.50;58.70;;;;;;1486334;39;20369;-61
2021/04/06 06:50:50;;;;;;;4.20;2.50;;;6.60;58.70;;;;;;1484989;39;20723;-61
2021/04/06 06:52:28;;;;;;;5.20;2.78;;;6.60;58.60;;;;;;1485588;39;20032;-61
2021/04/06 06:53:49;;;;;;;2.45;2.28;;;6.60;58.80;;;;;;1483816;39;20089;-59
2021/04/06 06:55:24;;;;;;;10.32;3.55;;;6.60;58.70;;;;;;1486765;39;20100;-59
2021/04/06 06:56:45;;;;;;;6.28;3.20;;;6.60;59.00;;;;;;1487974;39;20013;-60
2021/04/06 06:58:06;;;;;;;7.00;3.15;;;6.70;59.00;;;;;;1485286;39;20027;-59
2021/04/06 06:59:35;;;;;;;4.35;2.80;;;6.70;59.60;;;;;;1488837;39;20104;-61
2021/04/06 07:00:56;;;;;;;6.00;2.88;;;6.70;59.10;;;;;;1485154;39;20364;-59
2021/04/06 07:02:28;;;;;;;7.72;3.13;;;6.60;58.90;;;;;;1484077;39;20048;-60
2021/04/06 07:04:06;;;;;;;6.38;2.70;;;6.70;59.00;;;;;;1484496;39;20289;-61
2021/04/06 07:05:29;;;;;;;7.55;3.28;;;6.70;58.80;;;;;;1483049;39;20041;-60
2021/04/06 07:06:50;;;;;;;6.00;2.63;;;6.70;58.80;;;;;;1486137;39;20355;-60
2021/04/06 07:08:10;;;;;;;6.25;2.80;;;6.70;58.90;;;;;;1485098;40;20075;-61
2021/04/06 07:09:32;;;;;;;5.45;2.78;;;6.70;58.80;;;;;;1490528;39;20031;-61
2021/04/06 07:10:54;;;;;;;4.18;2.60;;;6.80;58.80;;;;;;1486137;39;20059;-60
2021/04/06 07:12:16;;;;;;;8.45;2.75;;;6.80;58.80;;;;;;1484164;39;20036;-60
2021/04/06 07:13:39;;;;;;;6.75;2.70;;;6.80;58.60;;;;;;1483679;40;20136;-61
2021/04/06 07:15:00;;;;;;;4.68;3.03;;;6.80;58.50;;;;;;1486467;40;20039;-61
2021/04/06 07:16:21;;;;;;;7.50;2.67;;;6.80;58.40;;;;;;1485281;39;20037;-60
2021/04/06 07:17:43;;;;;;;5.82;2.15;;;6.80;58.40;;;;;;1486134;39;20072;-60
2021/04/06 07:19:06;;;;;;;3.97;2.00;;;6.90;58.30;;;;;;1486405;39;20322;-60
2021/04/06 07:20:28;;;;;;;4.95;2.15;;;6.90;58.30;;;;;;1486559;39;20326;-60